createdAt,value
2023-06-03T00:00:54.467Z,40.58
2023-06-03T00:03:56.931Z,40.29
2023-06-03T00:06:59.397Z,40.21
2023-06-03T00:10:01.566Z,40.47
2023-06-03T00:13:03.869Z,40.48
2023-06-03T00:16:06.607Z,40.36
2023-06-03T00:19:08.811Z,40.38
2023-06-03T00:22:11.543Z,40.34
2023-06-03T00:25:13.881Z,40.60
2023-06-03T00:28:16.279Z,40.67
2023-06-03T00:31:18.484Z,40.59
2023-06-03T00:34:20.794Z,40.72
2023-06-03T00:37:23.036Z,40.65
2023-06-03T00:40:25.395Z,40.31
2023-06-03T00:43:27.718Z,40.68
2023-06-03T00:46:32.090Z,40.39
2023-06-03T00:49:35.422Z,40.44
2023-06-03T00:52:38.832Z,40.56
2023-06-03T00:55:42.019Z,40.33
2023-06-03T00:58:44.475Z,40.43
2023-06-03T01:01:46.751Z,40.10
2023-06-03T01:04:49.472Z,39.95
2023-06-03T01:08:02.411Z,39.84
2023-06-03T01:11:14.102Z,40.22
2023-06-03T01:14:20.108Z,40.29
2023-06-03T01:17:25.998Z,39.89
2023-06-03T01:20:29.327Z,39.86
2023-06-03T01:23:35.006Z,40.13
2023-06-03T01:26:37.595Z,39.89
2023-06-03T01:29:43.737Z,39.67
2023-06-03T01:32:48.253Z,39.92
2023-06-03T01:35:53.741Z,39.90
2023-06-03T01:38:56.392Z,39.45
2023-06-03T01:41:58.744Z,40.08
2023-06-03T01:45:03.996Z,39.76
2023-06-03T01:48:06.549Z,39.64
2023-06-03T01:51:08.807Z,39.64
2023-06-03T01:54:11.037Z,39.22
2023-06-03T01:57:14.483Z,39.45
2023-06-03T02:00:17.649Z,39.55
2023-06-03T02:03:19.839Z,39.50
2023-06-03T02:06:22.079Z,39.80
2023-06-03T02:09:28.592Z,39.32
2023-06-03T02:12:30.899Z,39.50
2023-06-03T02:15:33.200Z,39.71
2023-06-03T02:18:36.108Z,39.73
2023-06-03T02:21:39.491Z,39.45
2023-06-03T02:24:42.139Z,39.49
2023-06-03T02:27:45.094Z,39.50
2023-06-03T02:30:48.176Z,39.38
2023-06-03T02:33:51.253Z,39.25
2023-06-03T02:36:53.646Z,39.69
2023-06-03T02:39:55.894Z,39.29
2023-06-03T02:42:59.607Z,39.66
2023-06-03T02:46:01.993Z,39.50
2023-06-03T02:49:05.988Z,40.01
2023-06-03T02:52:09.127Z,40.27
2023-06-03T02:55:11.398Z,39.95
2023-06-03T02:58:13.797Z,40.17
2023-06-03T03:01:16.325Z,39.88
2023-06-03T03:04:19.090Z,40.05
2023-06-03T03:07:21.691Z,39.39
2023-06-03T03:10:24.055Z,39.51
2023-06-03T03:13:26.370Z,39.97
2023-06-03T03:16:29.243Z,39.79
2023-06-03T03:19:35.383Z,39.67
2023-06-03T03:22:43.023Z,40.02
2023-06-03T03:25:46.611Z,39.61
2023-06-03T03:28:49.159Z,39.87
2023-06-03T03:31:54.517Z,39.64
2023-06-03T03:35:03.086Z,39.70
2023-06-03T03:38:06.550Z,39.79
2023-06-03T03:41:10.685Z,39.95
2023-06-03T03:44:13.301Z,39.76
2023-06-03T03:47:23.160Z,39.49
2023-06-03T03:50:42.602Z,39.71
2023-06-03T03:53:48.097Z,38.97
2023-06-03T03:56:59.166Z,38.82
2023-06-03T04:00:02.509Z,37.38
2023-06-03T04:03:06.884Z,36.27
2023-06-03T04:06:27.529Z,35.57
2023-06-03T04:09:29.798Z,35.17
2023-06-03T04:12:37.519Z,34.38
2023-06-03T04:15:41.455Z,34.48
2023-06-03T04:18:44.022Z,35.51
2023-06-03T04:21:47.073Z,36.05
2023-06-03T04:24:55.756Z,35.99
2023-06-03T04:27:58.134Z,36.17
2023-06-03T04:31:00.745Z,36.34
2023-06-03T04:34:03.752Z,36.66
2023-06-03T04:37:06.607Z,36.76
2023-06-03T04:40:12.381Z,36.66
2023-06-03T04:43:16.864Z,36.49
2023-06-03T04:46:19.384Z,36.72
2023-06-03T04:49:21.856Z,36.67
2023-06-03T04:52:24.577Z,36.71
2023-06-03T04:55:29.479Z,36.86
2023-06-03T04:58:32.367Z,36.95
2023-06-03T05:01:38.252Z,36.91
2023-06-03T05:04:45.901Z,36.81
2023-06-03T05:07:48.827Z,36.74
2023-06-03T05:10:51.238Z,36.58
2023-06-03T05:13:53.877Z,36.57
2023-06-03T05:16:56.116Z,36.20
2023-06-03T05:19:58.779Z,36.33
2023-06-03T05:23:01.107Z,36.35
2023-06-03T05:26:03.923Z,36.19
2023-06-03T05:29:06.334Z,36.01
2023-06-03T05:32:08.806Z,36.24
2023-06-03T05:35:11.574Z,36.20
2023-06-03T05:38:14.817Z,35.90
2023-06-03T05:41:17.976Z,35.27
2023-06-03T05:44:20.212Z,35.92
2023-06-03T05:47:22.648Z,35.59
2023-06-03T05:50:25.027Z,35.68
2023-06-03T05:53:29.393Z,35.66
2023-06-03T05:56:34.135Z,35.43
2023-06-03T05:59:37.104Z,35.11
2023-06-03T06:02:40.987Z,34.77
2023-06-03T06:05:43.684Z,34.96
2023-06-03T06:08:46.076Z,34.69
2023-06-03T06:11:48.431Z,34.70
2023-06-03T06:14:50.805Z,34.80
2023-06-03T06:17:53.609Z,34.81
2023-06-03T06:20:56.222Z,34.45
2023-06-03T06:23:59.291Z,34.62
2023-06-03T06:27:01.644Z,34.60
2023-06-03T06:30:04.594Z,34.89
2023-06-03T06:33:07.598Z,34.07
2023-06-03T06:36:33.711Z,34.55
2023-06-03T06:39:55.679Z,34.06
2023-06-03T06:43:22.354Z,34.20
2023-06-03T06:46:37.833Z,34.16
2023-06-03T06:49:40.174Z,34.00
2023-06-03T06:52:42.506Z,34.42
2023-06-03T06:55:47.422Z,34.13
2023-06-03T06:58:51.476Z,34.18
2023-06-03T07:01:54.103Z,33.63
2023-06-03T07:04:56.490Z,33.84
2023-06-03T07:08:14.837Z,33.97
2023-06-03T07:11:17.105Z,33.65
2023-06-03T07:14:32.068Z,33.71
2023-06-03T07:17:34.392Z,33.52
2023-06-03T07:20:41.225Z,33.78
2023-06-03T07:23:46.592Z,33.85
2023-06-03T07:26:48.896Z,34.11
2023-06-03T07:29:51.822Z,33.70
2023-06-03T07:32:59.866Z,33.88
2023-06-03T07:36:04.725Z,34.34
2023-06-03T07:39:16.168Z,33.93
2023-06-03T07:42:23.702Z,33.92
2023-06-03T07:45:47.501Z,33.34
2023-06-03T07:48:49.688Z,33.84
2023-06-03T07:51:53.233Z,33.68
2023-06-03T07:54:55.582Z,33.70
2023-06-03T07:57:57.787Z,33.43
2023-06-03T08:01:00.065Z,33.45
2023-06-03T08:04:05.131Z,33.70
2023-06-03T08:07:08.562Z,33.44
2023-06-03T08:10:19.202Z,34.29
2023-06-03T08:13:21.405Z,34.19
2023-06-03T08:16:23.684Z,34.16
2023-06-03T08:19:25.983Z,34.56
2023-06-03T08:22:42.462Z,34.54
2023-06-03T08:25:44.634Z,34.60
2023-06-03T08:28:47.453Z,34.58
2023-06-03T08:31:51.847Z,34.72
2023-06-03T08:34:54.091Z,34.61
2023-06-03T08:37:57.827Z,34.53
2023-06-03T08:41:00.503Z,34.26
2023-06-03T08:44:04.935Z,34.44
2023-06-03T08:47:14.820Z,33.47
2023-06-03T08:50:22.455Z,33.47
2023-06-03T08:53:25.037Z,32.95
2023-06-03T08:56:28.835Z,32.71
2023-06-03T08:59:32.769Z,31.77
2023-06-03T09:02:35.719Z,31.90
2023-06-03T09:05:38.986Z,31.78
2023-06-03T09:08:41.227Z,31.29
2023-06-03T09:11:46.080Z,31.96
2023-06-03T09:14:48.674Z,30.93
2023-06-03T09:17:50.979Z,31.02
2023-06-03T09:20:53.238Z,31.00
2023-06-03T09:23:55.779Z,31.41
2023-06-03T09:26:58.444Z,30.85
2023-06-03T09:30:05.048Z,30.98
2023-06-03T09:33:07.281Z,31.08
2023-06-03T09:36:11.568Z,30.80
2023-06-03T09:39:18.004Z,30.88
2023-06-03T09:42:20.380Z,30.73
2023-06-03T09:45:27.521Z,30.98
2023-06-03T09:48:31.240Z,31.21
2023-06-03T09:51:42.148Z,30.33
2023-06-03T09:54:48.105Z,30.35
2023-06-03T09:58:10.779Z,30.69
2023-06-03T10:01:13.106Z,30.04
2023-06-03T10:04:23.477Z,29.92
2023-06-03T10:07:26.146Z,29.90
2023-06-03T10:10:28.365Z,29.60
2023-06-03T10:13:30.649Z,29.48
2023-06-03T10:16:32.903Z,28.69
2023-06-03T10:19:36.614Z,28.67
2023-06-03T10:22:40.853Z,28.60
2023-06-03T10:25:44.935Z,28.78
2023-06-03T10:28:49.497Z,28.83
2023-06-03T10:31:54.718Z,29.12
2023-06-03T10:35:00.521Z,28.83
2023-06-03T10:38:05.291Z,28.58
2023-06-03T10:41:09.232Z,28.62
2023-06-03T10:44:11.387Z,28.70
2023-06-03T10:47:23.046Z,29.04
2023-06-03T10:51:02.737Z,28.88
2023-06-03T10:54:19.844Z,29.15
2023-06-03T10:57:27.257Z,28.55
2023-06-03T11:00:55.323Z,28.89
2023-06-03T11:04:04.167Z,29.06
2023-06-03T11:07:08.614Z,28.80
2023-06-03T11:10:40.689Z,28.60
2023-06-03T11:13:43.358Z,28.62
2023-06-03T11:16:57.591Z,28.95
2023-06-03T11:20:00.697Z,28.98
2023-06-03T11:23:03.141Z,28.78
2023-06-03T11:26:31.255Z,28.75
2023-06-03T11:29:48.345Z,28.09
2023-06-03T11:33:08.797Z,27.92
2023-06-03T11:36:48.780Z,27.53
2023-06-03T11:40:11.323Z,27.90
2023-06-03T11:43:14.100Z,27.48
2023-06-03T11:46:16.536Z,27.49
2023-06-03T11:49:19.422Z,27.20
2023-06-03T11:52:21.660Z,27.17
2023-06-03T11:55:28.350Z,27.15
2023-06-03T11:58:30.769Z,27.54
2023-06-03T12:01:33.247Z,27.07
2023-06-03T12:04:36.221Z,26.93
2023-06-03T12:07:38.969Z,26.75
2023-06-03T12:10:41.485Z,26.38
2023-06-03T12:13:43.763Z,26.64
2023-06-03T12:16:46.531Z,26.12
2023-06-03T12:19:51.169Z,26.03
2023-06-03T12:23:05.041Z,26.42
2023-06-03T12:26:07.527Z,26.23
2023-06-03T12:29:15.469Z,26.60
2023-06-03T12:32:18.420Z,25.97
2023-06-03T12:35:20.724Z,25.21
2023-06-03T12:38:23.124Z,25.19
2023-06-03T12:41:26.550Z,25.37
2023-06-03T12:44:29.020Z,25.33
2023-06-03T12:47:42.462Z,25.92
2023-06-03T12:50:46.103Z,25.26
2023-06-03T12:53:48.333Z,24.98
2023-06-03T12:56:50.488Z,24.68
2023-06-03T13:00:10.820Z,25.11
2023-06-03T13:03:13.501Z,25.37
2023-06-03T13:06:16.019Z,24.68
2023-06-03T13:09:18.185Z,24.76
2023-06-03T13:12:20.441Z,24.86
2023-06-03T13:15:22.841Z,25.12
2023-06-03T13:18:25.763Z,24.97
2023-06-03T13:21:28.042Z,25.23
2023-06-03T13:24:31.625Z,24.88
2023-06-03T13:27:36.459Z,24.59
2023-06-03T13:30:38.761Z,24.68
2023-06-03T13:33:41.021Z,24.71
2023-06-03T13:36:43.296Z,24.20
2023-06-03T13:39:45.678Z,23.73
2023-06-03T13:42:49.559Z,24.16
2023-06-03T13:45:51.821Z,23.32
2023-06-03T13:48:54.201Z,23.48
2023-06-03T13:51:56.448Z,22.89
2023-06-03T13:54:58.713Z,22.90
2023-06-03T13:58:00.960Z,22.35
2023-06-03T14:01:04.480Z,22.49
2023-06-03T14:04:07.794Z,22.70
2023-06-03T14:07:27.468Z,21.59
2023-06-03T14:10:29.736Z,22.30
2023-06-03T14:13:31.890Z,22.25
2023-06-03T14:16:34.156Z,22.75
2023-06-03T14:19:36.366Z,22.44
2023-06-03T14:22:38.638Z,22.91
2023-06-03T14:25:41.346Z,22.56
2023-06-03T14:28:43.490Z,22.93
2023-06-03T14:31:48.064Z,22.68
2023-06-03T14:34:50.763Z,22.46
2023-06-03T14:37:53.064Z,22.65
2023-06-03T14:40:55.357Z,21.92
2023-06-03T14:43:58.146Z,22.82
2023-06-03T14:47:00.466Z,22.80
2023-06-03T14:50:03.380Z,22.24
2023-06-03T14:53:06.547Z,23.25
2023-06-03T14:56:11.432Z,22.62
2023-06-03T14:59:13.660Z,21.84
2023-06-03T15:02:15.986Z,22.30
2023-06-03T15:05:18.349Z,23.50
2023-06-03T15:08:21.358Z,23.50
2023-06-03T15:11:26.774Z,22.68
2023-06-03T15:14:29.058Z,22.56
2023-06-03T15:17:31.373Z,22.37
2023-06-03T15:20:33.614Z,22.91
2023-06-03T15:23:35.920Z,22.01
2023-06-03T15:26:38.137Z,22.83
2023-06-03T15:29:41.605Z,23.01
2023-06-03T15:32:43.972Z,22.29
2023-06-03T15:35:46.238Z,22.49
2023-06-03T15:38:48.450Z,22.05
2023-06-03T15:41:50.831Z,23.00
2023-06-03T15:44:53.065Z,22.75
2023-06-03T15:47:55.346Z,22.09
2023-06-03T15:50:57.600Z,22.94
2023-06-03T15:53:59.827Z,21.95
2023-06-03T15:57:02.098Z,23.49
2023-06-03T16:00:05.288Z,22.75
2023-06-03T16:03:07.857Z,22.37
2023-06-03T16:06:10.333Z,22.28
2023-06-03T16:09:12.767Z,23.65
2023-06-03T16:12:15.408Z,22.39
2023-06-03T16:15:17.997Z,21.31
2023-06-03T16:18:20.277Z,23.91
2023-06-03T16:21:22.454Z,23.54
2023-06-03T16:24:24.676Z,21.59
2023-06-03T16:27:27.112Z,21.23
2023-06-03T16:30:29.813Z,22.34
2023-06-03T16:33:37.501Z,22.11
2023-06-03T16:36:43.275Z,22.77
2023-06-03T16:39:45.469Z,21.80
2023-06-03T16:42:47.652Z,21.69
2023-06-03T16:45:50.750Z,21.82
2023-06-03T16:48:53.010Z,22.74
2023-06-03T16:51:55.336Z,21.99
2023-06-03T16:54:57.489Z,23.44
2023-06-03T16:58:01.882Z,21.77
2023-06-03T17:01:04.325Z,22.48
2023-06-03T17:04:07.616Z,21.60
2023-06-03T17:07:09.880Z,21.17
2023-06-03T17:10:13.357Z,21.42
2023-06-03T17:13:18.591Z,22.33
2023-06-03T17:16:20.913Z,22.08
2023-06-03T17:19:23.211Z,21.02
2023-06-03T17:22:25.712Z,20.92
2023-06-03T17:25:30.932Z,21.37
2023-06-03T17:28:33.151Z,21.56
2023-06-03T17:31:35.475Z,21.44
2023-06-03T17:34:38.259Z,21.64
2023-06-03T17:37:40.496Z,22.23
2023-06-03T17:40:42.743Z,22.17
2023-06-03T17:43:44.985Z,22.28
2023-06-03T17:46:47.291Z,23.05
2023-06-03T17:49:50.662Z,23.47
2023-06-03T17:52:53.176Z,23.80
2023-06-03T17:55:56.691Z,23.58
2023-06-03T17:58:59.851Z,24.06
2023-06-03T18:02:02.964Z,24.05
2023-06-03T18:05:05.701Z,24.11
2023-06-03T18:08:08.088Z,24.26
2023-06-03T18:11:10.568Z,24.23
2023-06-03T18:14:12.971Z,24.39
2023-06-03T18:17:15.347Z,24.40
2023-06-03T18:20:17.593Z,24.34
2023-06-03T18:23:19.806Z,24.59
2023-06-03T18:26:28.635Z,24.33
2023-06-03T18:29:31.818Z,24.11
2023-06-03T18:32:36.256Z,24.56
2023-06-03T18:35:38.489Z,24.08
2023-06-03T18:38:40.684Z,24.18
2023-06-03T18:41:43.031Z,24.27
2023-06-03T18:44:45.345Z,24.43
2023-06-03T18:47:47.591Z,24.46
2023-06-03T18:50:49.807Z,24.47
2023-06-03T18:53:52.280Z,25.01
2023-06-03T18:56:54.676Z,24.59
2023-06-03T18:59:56.904Z,25.02
2023-06-03T19:03:00.675Z,25.04
2023-06-03T19:06:06.459Z,25.13
2023-06-03T19:09:08.787Z,25.41
2023-06-03T19:12:11.008Z,25.73
2023-06-03T19:15:13.653Z,25.91
2023-06-03T19:18:16.397Z,25.67
2023-06-03T19:21:18.607Z,26.13
2023-06-03T19:24:21.721Z,26.34
2023-06-03T19:27:23.987Z,27.12
2023-06-03T19:30:26.341Z,27.14
2023-06-03T19:33:28.515Z,26.96
2023-06-03T19:36:30.795Z,27.47
2023-06-03T19:39:33.503Z,27.47
2023-06-03T19:42:35.736Z,27.63
2023-06-03T19:45:38.005Z,27.83
2023-06-03T19:48:40.244Z,27.55
2023-06-03T19:51:42.463Z,27.91
2023-06-03T19:54:44.647Z,27.59
2023-06-03T19:57:47.007Z,27.98
2023-06-03T20:00:49.313Z,28.17
2023-06-03T20:03:51.768Z,28.28
2023-06-03T20:06:54.068Z,28.24
2023-06-03T20:09:56.231Z,28.65
2023-06-03T20:12:58.446Z,28.29
2023-06-03T20:16:00.830Z,28.70
2023-06-03T20:19:03.028Z,28.92
2023-06-03T20:22:06.149Z,29.13
2023-06-03T20:25:08.609Z,28.73
2023-06-03T20:28:13.174Z,28.91
2023-06-03T20:31:15.671Z,29.16
2023-06-03T20:34:17.896Z,29.16
2023-06-03T20:37:20.386Z,29.13
2023-06-03T20:40:25.628Z,29.63
2023-06-03T20:43:27.968Z,29.66
2023-06-03T20:46:30.468Z,29.52
2023-06-03T20:49:32.755Z,29.39
2023-06-03T20:52:34.958Z,29.56
2023-06-03T20:55:37.128Z,29.46
2023-06-03T20:58:39.356Z,29.37
2023-06-03T21:01:41.589Z,29.42
2023-06-03T21:04:43.869Z,29.54
2023-06-03T21:07:46.120Z,29.41
2023-06-03T21:10:48.384Z,29.58
2023-06-03T21:13:50.892Z,29.38
2023-06-03T21:16:53.128Z,29.48
2023-06-03T21:19:55.358Z,29.46
2023-06-03T21:22:57.556Z,29.23
2023-06-03T21:26:01.388Z,29.26
2023-06-03T21:29:05.127Z,29.55
2023-06-03T21:32:07.859Z,29.43
2023-06-03T21:35:10.681Z,29.69
2023-06-03T21:38:12.878Z,30.08
2023-06-03T21:41:15.109Z,29.92
2023-06-03T21:44:17.649Z,30.17
2023-06-03T21:47:21.877Z,30.07
2023-06-03T21:50:24.179Z,29.74
2023-06-03T21:53:26.970Z,30.56
2023-06-03T21:56:30.231Z,30.18
2023-06-03T21:59:32.436Z,30.65
2023-06-03T22:02:34.667Z,30.46
2023-06-03T22:05:37.604Z,30.95
2023-06-03T22:08:39.842Z,31.10
2023-06-03T22:11:42.027Z,31.21
2023-06-03T22:14:44.255Z,30.02
2023-06-03T22:17:46.489Z,30.57
2023-06-03T22:20:50.873Z,30.92
2023-06-03T22:23:54.624Z,30.61
2023-06-03T22:26:56.932Z,31.32
2023-06-03T22:29:59.272Z,31.52
2023-06-03T22:33:01.552Z,31.68
2023-06-03T22:36:03.896Z,31.23
2023-06-03T22:39:06.567Z,31.74
2023-06-03T22:42:08.995Z,30.46
2023-06-03T22:45:11.509Z,31.00
2023-06-03T22:48:14.262Z,31.26
2023-06-03T22:51:16.520Z,30.63
2023-06-03T22:54:18.746Z,31.03
2023-06-03T22:57:21.545Z,30.98
2023-06-03T23:00:23.756Z,31.34
2023-06-03T23:03:26.025Z,30.77
2023-06-03T23:06:28.311Z,30.77
2023-06-03T23:09:30.656Z,31.62
2023-06-03T23:12:42.019Z,31.28
2023-06-03T23:15:44.201Z,31.84
2023-06-03T23:18:46.414Z,31.74
2023-06-03T23:21:48.578Z,31.58
2023-06-03T23:24:50.789Z,31.60
2023-06-03T23:27:52.988Z,31.11
2023-06-03T23:30:55.155Z,31.45
2023-06-03T23:33:57.605Z,31.15
2023-06-03T23:36:59.865Z,30.94
2023-06-03T23:40:02.204Z,31.51
2023-06-03T23:43:04.442Z,31.19
2023-06-03T23:46:06.712Z,31.07
2023-06-03T23:49:09.179Z,30.71
2023-06-03T23:52:11.465Z,31.31
2023-06-03T23:55:14.958Z,31.64
2023-06-03T23:58:17.301Z,31.94
